sensor_id;sensor_type;location;lat;lon;timestamp;temperature;humidity
64670;DHT22;51080;51.690;5.174;2023-04-25T00:04:34;6.70;77.30
64670;DHT22;51080;51.690;5.174;2023-04-25T00:10:48;6.60;77.10
64670;DHT22;51080;51.690;5.174;2023-04-25T00:17:03;6.50;77.00
64670;DHT22;51080;51.690;5.174;2023-04-25T00:23:26;6.50;77.00
64670;DHT22;51080;51.690;5.174;2023-04-25T00:29:41;6.40;77.00
64670;DHT22;51080;51.690;5.174;2023-04-25T00:36:07;6.30;76.90
64670;DHT22;51080;51.690;5.174;2023-04-25T00:42:22;6.30;76.90
64670;DHT22;51080;51.690;5.174;2023-04-25T00:48:37;6.20;76.70
64670;DHT22;51080;51.690;5.174;2023-04-25T00:54:51;6.20;76.90
64670;DHT22;51080;51.690;5.174;2023-04-25T01:01:06;6.10;77.20
64670;DHT22;51080;51.690;5.174;2023-04-25T01:07:21;6.10;77.30
64670;DHT22;51080;51.690;5.174;2023-04-25T01:13:36;6.00;77.40
64670;DHT22;51080;51.690;5.174;2023-04-25T01:19:50;6.00;77.90
64670;DHT22;51080;51.690;5.174;2023-04-25T01:26:06;6.00;77.90
64670;DHT22;51080;51.690;5.174;2023-04-25T01:32:23;6.10;78.10
64670;DHT22;51080;51.690;5.174;2023-04-25T01:38:37;6.10;78.00
64670;DHT22;51080;51.690;5.174;2023-04-25T01:44:54;6.10;77.90
64670;DHT22;51080;51.690;5.174;2023-04-25T01:51:09;6.10;77.90
64670;DHT22;51080;51.690;5.174;2023-04-25T01:57:24;6.10;77.90
64670;DHT22;51080;51.690;5.174;2023-04-25T02:03:38;6.10;77.70
64670;DHT22;51080;51.690;5.174;2023-04-25T02:09:53;6.10;77.30
64670;DHT22;51080;51.690;5.174;2023-04-25T02:16:08;6.00;77.30
64670;DHT22;51080;51.690;5.174;2023-04-25T02:22:22;6.00;77.10
64670;DHT22;51080;51.690;5.174;2023-04-25T02:28:37;6.00;77.60
64670;DHT22;51080;51.690;5.174;2023-04-25T02:34:52;5.90;77.70
64670;DHT22;51080;51.690;5.174;2023-04-25T02:41:08;5.90;78.00
64670;DHT22;51080;51.690;5.174;2023-04-25T02:47:22;5.90;77.80
64670;DHT22;51080;51.690;5.174;2023-04-25T02:53:37;5.90;78.40
64670;DHT22;51080;51.690;5.174;2023-04-25T02:59:51;6.00;77.90
64670;DHT22;51080;51.690;5.174;2023-04-25T03:06:06;6.00;77.80
64670;DHT22;51080;51.690;5.174;2023-04-25T03:12:29;6.10;77.70
64670;DHT22;51080;51.690;5.174;2023-04-25T03:18:44;6.10;77.70
64670;DHT22;51080;51.690;5.174;2023-04-25T03:24:58;6.20;77.30
64670;DHT22;51080;51.690;5.174;2023-04-25T03:31:13;6.20;77.50
64670;DHT22;51080;51.690;5.174;2023-04-25T03:37:27;6.20;77.20
64670;DHT22;51080;51.690;5.174;2023-04-25T03:43:42;6.20;77.40
64670;DHT22;51080;51.690;5.174;2023-04-25T03:49:57;6.20;77.30
64670;DHT22;51080;51.690;5.174;2023-04-25T03:56:11;6.20;77.30
64670;DHT22;51080;51.690;5.174;2023-04-25T04:02:26;6.20;77.10
64670;DHT22;51080;51.690;5.174;2023-04-25T04:08:41;6.20;77.00
64670;DHT22;51080;51.690;5.174;2023-04-25T04:14:56;6.10;77.40
64670;DHT22;51080;51.690;5.174;2023-04-25T04:21:11;6.10;77.40
64670;DHT22;51080;51.690;5.174;2023-04-25T04:27:27;6.10;77.40
64670;DHT22;51080;51.690;5.174;2023-04-25T04:33:42;6.20;77.50
64670;DHT22;51080;51.690;5.174;2023-04-25T04:40:06;6.20;77.30
64670;DHT22;51080;51.690;5.174;2023-04-25T04:46:22;6.30;77.40
64670;DHT22;51080;51.690;5.174;2023-04-25T04:52:38;6.40;77.20
64670;DHT22;51080;51.690;5.174;2023-04-25T04:58:52;6.40;77.20
64670;DHT22;51080;51.690;5.174;2023-04-25T05:05:07;6.50;77.20
64670;DHT22;51080;51.690;5.174;2023-04-25T05:11:23;6.50;77.30
64670;DHT22;51080;51.690;5.174;2023-04-25T05:17:46;6.50;77.20
64670;DHT22;51080;51.690;5.174;2023-04-25T05:24:02;6.60;77.20
64670;DHT22;51080;51.690;5.174;2023-04-25T05:30:17;6.70;76.90
64670;DHT22;51080;51.690;5.174;2023-04-25T05:36:31;6.70;76.90
64670;DHT22;51080;51.690;5.174;2023-04-25T05:42:46;6.80;76.60
64670;DHT22;51080;51.690;5.174;2023-04-25T05:49:02;6.80;76.80
64670;DHT22;51080;51.690;5.174;2023-04-25T05:55:19;6.80;76.40
64670;DHT22;51080;51.690;5.174;2023-04-25T06:01:35;6.90;76.10
64670;DHT22;51080;51.690;5.174;2023-04-25T06:07:50;6.80;75.70
64670;DHT22;51080;51.690;5.174;2023-04-25T06:14:05;6.80;75.30
64670;DHT22;51080;51.690;5.174;2023-04-25T06:20:21;6.80;75.00
64670;DHT22;51080;51.690;5.174;2023-04-25T06:26:44;6.70;74.80
64670;DHT22;51080;51.690;5.174;2023-04-25T06:32:59;6.70;75.00
64670;DHT22;51080;51.690;5.174;2023-04-25T06:39:14;6.70;75.00
64670;DHT22;51080;51.690;5.174;2023-04-25T06:45:29;6.80;74.70
64670;DHT22;51080;51.690;5.174;2023-04-25T06:51:52;6.70;75.00
64670;DHT22;51080;51.690;5.174;2023-04-25T06:58:06;6.80;75.40
64670;DHT22;51080;51.690;5.174;2023-04-25T07:04:21;6.90;74.70
64670;DHT22;51080;51.690;5.174;2023-04-25T07:10:35;6.90;73.80
64670;DHT22;51080;51.690;5.174;2023-04-25T07:16:50;7.00;73.50
64670;DHT22;51080;51.690;5.174;2023-04-25T07:23:05;7.10;73.90
64670;DHT22;51080;51.690;5.174;2023-04-25T07:29:19;7.30;74.30
64670;DHT22;51080;51.690;5.174;2023-04-25T07:35:35;7.50;74.60
64670;DHT22;51080;51.690;5.174;2023-04-25T07:41:52;7.70;74.00
64670;DHT22;51080;51.690;5.174;2023-04-25T07:48:19;7.80;74.20
64670;DHT22;51080;51.690;5.174;2023-04-25T07:54:39;7.90;73.00
64670;DHT22;51080;51.690;5.174;2023-04-25T08:00:55;8.10;73.10
64670;DHT22;51080;51.690;5.174;2023-04-25T08:07:09;8.10;72.60
64670;DHT22;51080;51.690;5.174;2023-04-25T08:13:23;8.10;72.60
64670;DHT22;51080;51.690;5.174;2023-04-25T08:19:38;8.20;72.80
64670;DHT22;51080;51.690;5.174;2023-04-25T08:25:53;8.30;72.90
64670;DHT22;51080;51.690;5.174;2023-04-25T08:32:07;8.50;73.80
64670;DHT22;51080;51.690;5.174;2023-04-25T08:38:43;8.70;73.60
64670;DHT22;51080;51.690;5.174;2023-04-25T08:44:59;9.00;73.40
64670;DHT22;51080;51.690;5.174;2023-04-25T08:51:23;9.40;72.10
64670;DHT22;51080;51.690;5.174;2023-04-25T08:57:37;9.70;72.50
64670;DHT22;51080;51.690;5.174;2023-04-25T09:03:51;10.20;72.20
64670;DHT22;51080;51.690;5.174;2023-04-25T09:10:06;10.40;71.20
64670;DHT22;51080;51.690;5.174;2023-04-25T09:16:21;10.70;68.90
64670;DHT22;51080;51.690;5.174;2023-04-25T09:22:37;11.80;69.30
64670;DHT22;51080;51.690;5.174;2023-04-25T09:29:04;12.20;68.80
64670;DHT22;51080;51.690;5.174;2023-04-25T09:35:25;12.60;67.40
64670;DHT22;51080;51.690;5.174;2023-04-25T09:41:41;14.40;66.20
64670;DHT22;51080;51.690;5.174;2023-04-25T09:48:21;16.20;62.30
64670;DHT22;51080;51.690;5.174;2023-04-25T09:54:37;17.00;61.20
64670;DHT22;51080;51.690;5.174;2023-04-25T10:00:51;15.40;57.50
64670;DHT22;51080;51.690;5.174;2023-04-25T10:07:07;14.40;59.10
64670;DHT22;51080;51.690;5.174;2023-04-25T10:13:31;13.90;59.10
64670;DHT22;51080;51.690;5.174;2023-04-25T10:19:47;13.50;59.80
64670;DHT22;51080;51.690;5.174;2023-04-25T10:26:02;13.10;58.20
64670;DHT22;51080;51.690;5.174;2023-04-25T10:32:17;13.10;61.50
64670;DHT22;51080;51.690;5.174;2023-04-25T10:38:32;13.70;59.60
64670;DHT22;51080;51.690;5.174;2023-04-25T10:57:44;13.30;57.50
64670;DHT22;51080;51.690;5.174;2023-04-25T11:04:00;14.80;59.60
64670;DHT22;51080;51.690;5.174;2023-04-25T11:10:18;15.90;57.20
64670;DHT22;51080;51.690;5.174;2023-04-25T11:16:36;17.40;57.20
64670;DHT22;51080;51.690;5.174;2023-04-25T11:22:57;17.90;53.60
64670;DHT22;51080;51.690;5.174;2023-04-25T11:29:15;18.60;51.20
64670;DHT22;51080;51.690;5.174;2023-04-25T11:35:32;19.30;48.50
64670;DHT22;51080;51.690;5.174;2023-04-25T11:41:51;20.10;46.30
64670;DHT22;51080;51.690;5.174;2023-04-25T11:48:18;20.30;48.20
64670;DHT22;51080;51.690;5.174;2023-04-25T11:54:37;21.20;48.70
64670;DHT22;51080;51.690;5.174;2023-04-25T12:00:52;22.00;45.90
64670;DHT22;51080;51.690;5.174;2023-04-25T12:07:09;21.50;46.70
64670;DHT22;51080;51.690;5.174;2023-04-25T12:13:25;21.70;45.40
64670;DHT22;51080;51.690;5.174;2023-04-25T12:19:40;20.50;46.90
64670;DHT22;51080;51.690;5.174;2023-04-25T12:25:54;18.60;47.70
64670;DHT22;51080;51.690;5.174;2023-04-25T12:32:08;17.10;47.40
64670;DHT22;51080;51.690;5.174;2023-04-25T12:38:27;16.00;54.00
64670;DHT22;51080;51.690;5.174;2023-04-25T12:44:42;15.40;54.50
64670;DHT22;51080;51.690;5.174;2023-04-25T12:51:01;15.20;54.00
64670;DHT22;51080;51.690;5.174;2023-04-25T12:57:15;14.90;53.60
64670;DHT22;51080;51.690;5.174;2023-04-25T13:03:30;14.50;53.00
64670;DHT22;51080;51.690;5.174;2023-04-25T13:09:44;14.50;54.30
64670;DHT22;51080;51.690;5.174;2023-04-25T13:16:03;14.90;55.10
64670;DHT22;51080;51.690;5.174;2023-04-25T13:22:18;15.70;54.50
64670;DHT22;51080;51.690;5.174;2023-04-25T13:28:36;16.50;53.30
64670;DHT22;51080;51.690;5.174;2023-04-25T13:34:53;16.40;50.50
64670;DHT22;51080;51.690;5.174;2023-04-25T13:41:09;15.80;48.30
64670;DHT22;51080;51.690;5.174;2023-04-25T13:47:23;15.60;49.00
64670;DHT22;51080;51.690;5.174;2023-04-25T13:53:38;15.80;49.70
64670;DHT22;51080;51.690;5.174;2023-04-25T13:59:52;15.70;49.80
64670;DHT22;51080;51.690;5.174;2023-04-25T14:06:08;15.40;48.50
64670;DHT22;51080;51.690;5.174;2023-04-25T14:12:22;15.50;48.20
64670;DHT22;51080;51.690;5.174;2023-04-25T14:18:36;15.20;47.40
64670;DHT22;51080;51.690;5.174;2023-04-25T14:24:51;14.80;49.20
64670;DHT22;51080;51.690;5.174;2023-04-25T14:31:06;14.70;50.50
64670;DHT22;51080;51.690;5.174;2023-04-25T14:37:22;15.10;46.50
64670;DHT22;51080;51.690;5.174;2023-04-25T14:43:38;15.20;47.90
64670;DHT22;51080;51.690;5.174;2023-04-25T14:49:57;14.80;49.80
64670;DHT22;51080;51.690;5.174;2023-04-25T14:56:20;14.40;49.40
64670;DHT22;51080;51.690;5.174;2023-04-25T15:02:43;14.00;50.20
64670;DHT22;51080;51.690;5.174;2023-04-25T15:08:58;13.80;51.60
64670;DHT22;51080;51.690;5.174;2023-04-25T15:15:13;14.20;51.20
64670;DHT22;51080;51.690;5.174;2023-04-25T15:21:30;14.50;48.50
64670;DHT22;51080;51.690;5.174;2023-04-25T15:27:45;14.50;48.00
64670;DHT22;51080;51.690;5.174;2023-04-25T15:34:03;14.40;47.50
64670;DHT22;51080;51.690;5.174;2023-04-25T15:40:23;14.30;47.80
64670;DHT22;51080;51.690;5.174;2023-04-25T15:46:43;14.20;48.80
64670;DHT22;51080;51.690;5.174;2023-04-25T15:53:00;14.10;49.90
64670;DHT22;51080;51.690;5.174;2023-04-25T15:59:15;13.90;49.80
64670;DHT22;51080;51.690;5.174;2023-04-25T16:05:30;13.70;49.00
64670;DHT22;51080;51.690;5.174;2023-04-25T16:11:46;13.30;50.80
64670;DHT22;51080;51.690;5.174;2023-04-25T16:18:03;13.20;48.90
64670;DHT22;51080;51.690;5.174;2023-04-25T16:24:18;12.90;50.00
64670;DHT22;51080;51.690;5.174;2023-04-25T16:30:32;12.80;49.30
64670;DHT22;51080;51.690;5.174;2023-04-25T16:36:48;12.80;50.90
64670;DHT22;51080;51.690;5.174;2023-04-25T16:43:03;12.80;51.00
64670;DHT22;51080;51.690;5.174;2023-04-25T16:49:18;12.70;50.30
64670;DHT22;51080;51.690;5.174;2023-04-25T16:55:32;12.40;48.20
64670;DHT22;51080;51.690;5.174;2023-04-25T17:01:47;12.10;50.40
64670;DHT22;51080;51.690;5.174;2023-04-25T17:08:02;11.80;50.90
64670;DHT22;51080;51.690;5.174;2023-04-25T17:14:17;11.70;51.90
64670;DHT22;51080;51.690;5.174;2023-04-25T17:20:32;11.60;53.00
64670;DHT22;51080;51.690;5.174;2023-04-25T17:26:48;11.50;53.00
64670;DHT22;51080;51.690;5.174;2023-04-25T17:33:03;11.50;53.60
64670;DHT22;51080;51.690;5.174;2023-04-25T17:39:27;11.50;54.60
64670;DHT22;51080;51.690;5.174;2023-04-25T17:45:42;11.50;54.00
64670;DHT22;51080;51.690;5.174;2023-04-25T17:51:58;11.40;52.50
64670;DHT22;51080;51.690;5.174;2023-04-25T17:58:16;11.30;53.70
64670;DHT22;51080;51.690;5.174;2023-04-25T18:04:32;11.20;53.10
64670;DHT22;51080;51.690;5.174;2023-04-25T18:10:47;11.00;53.00
64670;DHT22;51080;51.690;5.174;2023-04-25T18:17:02;10.80;53.60
64670;DHT22;51080;51.690;5.174;2023-04-25T18:23:21;10.60;53.60
64670;DHT22;51080;51.690;5.174;2023-04-25T18:29:37;10.50;53.80
64670;DHT22;51080;51.690;5.174;2023-04-25T18:35:52;10.30;54.00
64670;DHT22;51080;51.690;5.174;2023-04-25T18:42:07;10.10;55.00
64670;DHT22;51080;51.690;5.174;2023-04-25T18:48:22;9.90;55.30
64670;DHT22;51080;51.690;5.174;2023-04-25T18:54:37;9.70;55.40
64670;DHT22;51080;51.690;5.174;2023-04-25T19:00:53;9.50;55.60
64670;DHT22;51080;51.690;5.174;2023-04-25T19:07:17;9.30;55.20
64670;DHT22;51080;51.690;5.174;2023-04-25T19:13:33;9.20;55.60
64670;DHT22;51080;51.690;5.174;2023-04-25T19:19:47;9.10;55.80
64670;DHT22;51080;51.690;5.174;2023-04-25T19:26:02;9.00;56.40
64670;DHT22;51080;51.690;5.174;2023-04-25T19:32:18;8.80;56.70
64670;DHT22;51080;51.690;5.174;2023-04-25T19:38:32;8.70;57.00
64670;DHT22;51080;51.690;5.174;2023-04-25T19:44:56;8.60;57.40
64670;DHT22;51080;51.690;5.174;2023-04-25T19:51:12;8.40;57.70
64670;DHT22;51080;51.690;5.174;2023-04-25T19:57:27;8.40;57.90
64670;DHT22;51080;51.690;5.174;2023-04-25T20:03:43;8.30;58.20
64670;DHT22;51080;51.690;5.174;2023-04-25T20:09:58;8.20;58.40
64670;DHT22;51080;51.690;5.174;2023-04-25T20:16:14;8.20;58.70
64670;DHT22;51080;51.690;5.174;2023-04-25T20:22:29;8.10;58.60
64670;DHT22;51080;51.690;5.174;2023-04-25T20:28:46;7.90;58.90
64670;DHT22;51080;51.690;5.174;2023-04-25T20:35:03;7.90;59.40
64670;DHT22;51080;51.690;5.174;2023-04-25T20:41:27;7.80;59.30
64670;DHT22;51080;51.690;5.174;2023-04-25T20:47:53;7.70;59.50
64670;DHT22;51080;51.690;5.174;2023-04-25T20:54:11;7.60;59.50
64670;DHT22;51080;51.690;5.174;2023-04-25T21:00:25;7.60;59.60
64670;DHT22;51080;51.690;5.174;2023-04-25T21:06:40;7.40;60.00
64670;DHT22;51080;51.690;5.174;2023-04-25T21:12:54;7.30;60.10
64670;DHT22;51080;51.690;5.174;2023-04-25T21:19:09;7.20;60.60
64670;DHT22;51080;51.690;5.174;2023-04-25T21:25:34;7.10;60.80
64670;DHT22;51080;51.690;5.174;2023-04-25T21:31:50;7.10;60.60
64670;DHT22;51080;51.690;5.174;2023-04-25T21:38:14;7.00;60.50
64670;DHT22;51080;51.690;5.174;2023-04-25T21:44:30;6.90;61.00
64670;DHT22;51080;51.690;5.174;2023-04-25T21:50:55;6.80;61.00
64670;DHT22;51080;51.690;5.174;2023-04-25T21:57:09;6.60;61.30
64670;DHT22;51080;51.690;5.174;2023-04-25T22:03:24;6.60;61.70
64670;DHT22;51080;51.690;5.174;2023-04-25T22:09:39;6.50;61.90
64670;DHT22;51080;51.690;5.174;2023-04-25T22:15:54;6.50;62.10
64670;DHT22;51080;51.690;5.174;2023-04-25T22:22:17;6.40;62.00
64670;DHT22;51080;51.690;5.174;2023-04-25T22:28:36;6.30;62.50
64670;DHT22;51080;51.690;5.174;2023-04-25T22:34:52;6.20;62.40
64670;DHT22;51080;51.690;5.174;2023-04-25T22:41:07;6.20;62.30
64670;DHT22;51080;51.690;5.174;2023-04-25T22:47:22;6.00;62.60
64670;DHT22;51080;51.690;5.174;2023-04-25T22:53:38;6.00;62.80
64670;DHT22;51080;51.690;5.174;2023-04-25T22:59:54;5.90;63.00
64670;DHT22;51080;51.690;5.174;2023-04-25T23:06:09;5.80;62.90
64670;DHT22;51080;51.690;5.174;2023-04-25T23:12:24;5.70;63.10
64670;DHT22;51080;51.690;5.174;2023-04-25T23:18:39;5.50;63.30
64670;DHT22;51080;51.690;5.174;2023-04-25T23:24:53;5.40;63.60
64670;DHT22;51080;51.690;5.174;2023-04-25T23:31:09;5.30;63.80
64670;DHT22;51080;51.690;5.174;2023-04-25T23:37:27;5.20;63.80
64670;DHT22;51080;51.690;5.174;2023-04-25T23:43:42;5.10;63.90
64670;DHT22;51080;51.690;5.174;2023-04-25T23:49:58;5.00;64.00
64670;DHT22;51080;51.690;5.174;2023-04-25T23:56:13;4.90;63.80
